sensor_id;sensor_type;location;lat;lon;timestamp;temperature;humidity
32749;DHT22;19119;52.474;13.710;2022-08-19T00:02:04;21.60;99.90
32749;DHT22;19119;52.474;13.710;2022-08-19T00:04:32;21.70;99.90
32749;DHT22;19119;52.474;13.710;2022-08-19T00:07:00;21.70;99.90
32749;DHT22;19119;52.474;13.710;2022-08-19T00:09:27;21.70;99.90
32749;DHT22;19119;52.474;13.710;2022-08-19T00:11:54;21.50;99.90
32749;DHT22;19119;52.474;13.710;2022-08-19T00:14:21;21.40;99.90
32749;DHT22;19119;52.474;13.710;2022-08-19T00:16:48;21.50;99.90
32749;DHT22;19119;52.474;13.710;2022-08-19T00:19:15;21.50;99.90
32749;DHT22;19119;52.474;13.710;2022-08-19T00:21:41;21.40;99.90
32749;DHT22;19119;52.474;13.710;2022-08-19T00:24:08;21.40;99.90
32749;DHT22;19119;52.474;13.710;2022-08-19T00:26:34;21.40;99.90
32749;DHT22;19119;52.474;13.710;2022-08-19T00:29:01;21.30;99.90
32749;DHT22;19119;52.474;13.710;2022-08-19T00:31:26;21.30;99.90
32749;DHT22;19119;52.474;13.710;2022-08-19T00:33:53;21.40;99.90
32749;DHT22;19119;52.474;13.710;2022-08-19T00:36:19;21.30;99.90
32749;DHT22;19119;52.474;13.710;2022-08-19T00:38:45;21.10;99.90
32749;DHT22;19119;52.474;13.710;2022-08-19T00:41:16;21.10;99.90
32749;DHT22;19119;52.474;13.710;2022-08-19T00:44:04;21.00;99.90
32749;DHT22;19119;52.474;13.710;2022-08-19T00:46:31;21.00;99.90
32749;DHT22;19119;52.474;13.710;2022-08-19T00:48:59;20.90;99.90
32749;DHT22;19119;52.474;13.710;2022-08-19T00:51:27;21.00;99.90
32749;DHT22;19119;52.474;13.710;2022-08-19T00:53:57;20.80;99.90
32749;DHT22;19119;52.474;13.710;2022-08-19T00:56:23;20.90;99.90
32749;DHT22;19119;52.474;13.710;2022-08-19T00:58:49;20.90;99.90
32749;DHT22;19119;52.474;13.710;2022-08-19T01:01:15;20.80;99.90
32749;DHT22;19119;52.474;13.710;2022-08-19T01:03:40;20.90;99.90
32749;DHT22;19119;52.474;13.710;2022-08-19T01:06:06;21.00;99.90
32749;DHT22;19119;52.474;13.710;2022-08-19T01:08:32;21.10;99.90
32749;DHT22;19119;52.474;13.710;2022-08-19T01:10:59;21.20;99.90
32749;DHT22;19119;52.474;13.710;2022-08-19T01:13:32;20.90;99.90
32749;DHT22;19119;52.474;13.710;2022-08-19T01:16:06;20.80;99.90
32749;DHT22;19119;52.474;13.710;2022-08-19T01:18:38;20.30;99.90
32749;DHT22;19119;52.474;13.710;2022-08-19T01:21:28;20.30;99.90
32749;DHT22;19119;52.474;13.710;2022-08-19T01:23:56;20.30;99.90
32749;DHT22;19119;52.474;13.710;2022-08-19T01:26:23;20.40;99.90
32749;DHT22;19119;52.474;13.710;2022-08-19T01:28:51;20.30;99.90
32749;DHT22;19119;52.474;13.710;2022-08-19T01:31:20;20.30;99.90
32749;DHT22;19119;52.474;13.710;2022-08-19T01:33:47;20.20;99.90
32749;DHT22;19119;52.474;13.710;2022-08-19T01:36:24;20.00;99.90
32749;DHT22;19119;52.474;13.710;2022-08-19T01:38:52;19.80;99.90
32749;DHT22;19119;52.474;13.710;2022-08-19T01:41:18;19.80;99.90
32749;DHT22;19119;52.474;13.710;2022-08-19T01:43:44;19.90;99.90
32749;DHT22;19119;52.474;13.710;2022-08-19T01:46:10;20.00;99.90
32749;DHT22;19119;52.474;13.710;2022-08-19T01:48:38;20.10;99.90
32749;DHT22;19119;52.474;13.710;2022-08-19T01:51:04;20.20;99.90
32749;DHT22;19119;52.474;13.710;2022-08-19T01:53:30;20.30;99.90
32749;DHT22;19119;52.474;13.710;2022-08-19T01:55:56;20.40;99.90
32749;DHT22;19119;52.474;13.710;2022-08-19T01:58:28;20.20;99.90
32749;DHT22;19119;52.474;13.710;2022-08-19T02:00:56;20.30;99.90
32749;DHT22;19119;52.474;13.710;2022-08-19T02:03:21;20.20;99.90
32749;DHT22;19119;52.474;13.710;2022-08-19T02:05:48;20.30;99.90
32749;DHT22;19119;52.474;13.710;2022-08-19T02:08:18;20.40;99.90
32749;DHT22;19119;52.474;13.710;2022-08-19T02:10:44;20.30;99.90
32749;DHT22;19119;52.474;13.710;2022-08-19T02:13:11;20.30;99.90
32749;DHT22;19119;52.474;13.710;2022-08-19T02:15:37;20.30;99.90
32749;DHT22;19119;52.474;13.710;2022-08-19T02:18:03;20.30;99.90
32749;DHT22;19119;52.474;13.710;2022-08-19T02:20:28;20.30;99.90
32749;DHT22;19119;52.474;13.710;2022-08-19T02:22:54;20.40;99.90
32749;DHT22;19119;52.474;13.710;2022-08-19T02:25:19;20.30;99.90
32749;DHT22;19119;52.474;13.710;2022-08-19T02:27:45;20.30;99.90
32749;DHT22;19119;52.474;13.710;2022-08-19T02:30:14;20.30;99.90
32749;DHT22;19119;52.474;13.710;2022-08-19T02:32:41;20.20;99.90
32749;DHT22;19119;52.474;13.710;2022-08-19T02:35:08;20.20;99.90
32749;DHT22;19119;52.474;13.710;2022-08-19T02:37:34;20.00;99.90
32749;DHT22;19119;52.474;13.710;2022-08-19T02:40:18;20.10;99.90
32749;DHT22;19119;52.474;13.710;2022-08-19T02:42:45;20.10;99.90
32749;DHT22;19119;52.474;13.710;2022-08-19T02:45:11;20.10;99.90
32749;DHT22;19119;52.474;13.710;2022-08-19T02:47:37;20.10;99.90
32749;DHT22;19119;52.474;13.710;2022-08-19T02:50:04;20.10;99.90
32749;DHT22;19119;52.474;13.710;2022-08-19T02:52:32;20.10;99.90
32749;DHT22;19119;52.474;13.710;2022-08-19T02:54:58;20.00;99.90
32749;DHT22;19119;52.474;13.710;2022-08-19T02:57:24;20.10;99.90
32749;DHT22;19119;52.474;13.710;2022-08-19T02:59:50;20.10;99.90
32749;DHT22;19119;52.474;13.710;2022-08-19T03:02:16;20.20;99.90
32749;DHT22;19119;52.474;13.710;2022-08-19T03:04:41;20.10;99.90
32749;DHT22;19119;52.474;13.710;2022-08-19T03:07:09;20.10;99.90
32749;DHT22;19119;52.474;13.710;2022-08-19T03:09:37;20.10;99.90
32749;DHT22;19119;52.474;13.710;2022-08-19T03:12:03;20.00;99.90
32749;DHT22;19119;52.474;13.710;2022-08-19T03:14:33;19.90;99.90
32749;DHT22;19119;52.474;13.710;2022-08-19T03:16:59;19.90;99.90
32749;DHT22;19119;52.474;13.710;2022-08-19T03:19:25;20.00;99.90
32749;DHT22;19119;52.474;13.710;2022-08-19T03:21:51;20.00;99.90
32749;DHT22;19119;52.474;13.710;2022-08-19T03:24:18;20.00;99.90
32749;DHT22;19119;52.474;13.710;2022-08-19T03:26:50;20.00;99.90
32749;DHT22;19119;52.474;13.710;2022-08-19T03:29:18;19.90;99.90
32749;DHT22;19119;52.474;13.710;2022-08-19T03:31:44;20.00;99.90
32749;DHT22;19119;52.474;13.710;2022-08-19T03:34:12;19.90;99.90
32749;DHT22;19119;52.474;13.710;2022-08-19T03:36:38;20.00;99.90
32749;DHT22;19119;52.474;13.710;2022-08-19T03:39:04;20.10;99.90
32749;DHT22;19119;52.474;13.710;2022-08-19T03:41:31;20.10;99.90
32749;DHT22;19119;52.474;13.710;2022-08-19T03:43:57;20.10;99.90
32749;DHT22;19119;52.474;13.710;2022-08-19T03:46:29;20.00;99.90
32749;DHT22;19119;52.474;13.710;2022-08-19T03:48:57;20.00;99.90
32749;DHT22;19119;52.474;13.710;2022-08-19T03:51:30;19.90;99.90
32749;DHT22;19119;52.474;13.710;2022-08-19T03:53:57;19.90;99.90
32749;DHT22;19119;52.474;13.710;2022-08-19T03:56:23;19.90;99.90
32749;DHT22;19119;52.474;13.710;2022-08-19T03:58:51;19.90;99.90
32749;DHT22;19119;52.474;13.710;2022-08-19T04:01:19;19.90;99.90
32749;DHT22;19119;52.474;13.710;2022-08-19T04:03:45;19.90;99.90
32749;DHT22;19119;52.474;13.710;2022-08-19T04:06:23;19.90;99.90
32749;DHT22;19119;52.474;13.710;2022-08-19T04:08:51;19.90;99.90
32749;DHT22;19119;52.474;13.710;2022-08-19T04:11:28;20.00;99.90
32749;DHT22;19119;52.474;13.710;2022-08-19T04:13:54;20.00;99.90
32749;DHT22;19119;52.474;13.710;2022-08-19T04:16:25;20.10;99.90
32749;DHT22;19119;52.474;13.710;2022-08-19T04:18:54;20.10;99.90
32749;DHT22;19119;52.474;13.710;2022-08-19T04:21:23;20.10;99.90
32749;DHT22;19119;52.474;13.710;2022-08-19T04:23:49;20.10;99.90
32749;DHT22;19119;52.474;13.710;2022-08-19T04:26:17;20.10;99.90
32749;DHT22;19119;52.474;13.710;2022-08-19T04:28:44;20.10;99.90
32749;DHT22;19119;52.474;13.710;2022-08-19T04:31:14;20.00;99.90
32749;DHT22;19119;52.474;13.710;2022-08-19T04:33:40;20.00;99.90
32749;DHT22;19119;52.474;13.710;2022-08-19T04:36:06;20.00;99.90
32749;DHT22;19119;52.474;13.710;2022-08-19T04:38:32;19.90;99.90
32749;DHT22;19119;52.474;13.710;2022-08-19T04:40:58;19.90;99.90
32749;DHT22;19119;52.474;13.710;2022-08-19T04:43:44;19.90;99.90
32749;DHT22;19119;52.474;13.710;2022-08-19T04:46:12;20.10;99.90
32749;DHT22;19119;52.474;13.710;2022-08-19T04:48:39;20.20;99.90
32749;DHT22;19119;52.474;13.710;2022-08-19T04:51:10;20.20;99.90
32749;DHT22;19119;52.474;13.710;2022-08-19T04:53:37;20.20;99.90
32749;DHT22;19119;52.474;13.710;2022-08-19T04:56:09;20.30;99.90
32749;DHT22;19119;52.474;13.710;2022-08-19T04:58:36;20.40;99.90
32749;DHT22;19119;52.474;13.710;2022-08-19T05:01:03;20.20;99.90
32749;DHT22;19119;52.474;13.710;2022-08-19T05:03:30;20.30;99.90
32749;DHT22;19119;52.474;13.710;2022-08-19T05:06:04;20.30;99.90
32749;DHT22;19119;52.474;13.710;2022-08-19T05:08:33;20.30;99.90
32749;DHT22;19119;52.474;13.710;2022-08-19T05:10:59;20.20;99.90
32749;DHT22;19119;52.474;13.710;2022-08-19T05:13:24;20.20;99.90
32749;DHT22;19119;52.474;13.710;2022-08-19T05:15:56;20.10;99.90
32749;DHT22;19119;52.474;13.710;2022-08-19T05:18:22;20.20;99.90
32749;DHT22;19119;52.474;13.710;2022-08-19T05:21:13;20.20;99.90
32749;DHT22;19119;52.474;13.710;2022-08-19T05:23:57;20.30;99.90
32749;DHT22;19119;52.474;13.710;2022-08-19T05:26:24;20.20;99.90
32749;DHT22;19119;52.474;13.710;2022-08-19T05:28:51;20.30;99.90
32749;DHT22;19119;52.474;13.710;2022-08-19T05:31:17;20.20;99.90
32749;DHT22;19119;52.474;13.710;2022-08-19T05:33:42;20.30;99.90
32749;DHT22;19119;52.474;13.710;2022-08-19T05:36:08;20.40;99.90
32749;DHT22;19119;52.474;13.710;2022-08-19T05:38:34;20.50;99.90
32749;DHT22;19119;52.474;13.710;2022-08-19T05:41:05;20.70;99.90
32749;DHT22;19119;52.474;13.710;2022-08-19T05:43:31;20.50;99.90
32749;DHT22;19119;52.474;13.710;2022-08-19T05:45:57;20.70;99.90
32749;DHT22;19119;52.474;13.710;2022-08-19T05:48:23;20.80;99.90
32749;DHT22;19119;52.474;13.710;2022-08-19T05:50:49;20.80;99.90
32749;DHT22;19119;52.474;13.710;2022-08-19T05:53:16;20.80;99.90
32749;DHT22;19119;52.474;13.710;2022-08-19T05:55:41;20.80;99.90
32749;DHT22;19119;52.474;13.710;2022-08-19T05:58:07;20.80;99.90
32749;DHT22;19119;52.474;13.710;2022-08-19T06:00:33;20.90;99.90
32749;DHT22;19119;52.474;13.710;2022-08-19T06:02:59;20.90;99.90
32749;DHT22;19119;52.474;13.710;2022-08-19T06:05:29;21.00;99.90
32749;DHT22;19119;52.474;13.710;2022-08-19T06:07:54;21.00;99.90
32749;DHT22;19119;52.474;13.710;2022-08-19T06:10:20;21.20;99.90
32749;DHT22;19119;52.474;13.710;2022-08-19T06:12:47;21.30;99.90
32749;DHT22;19119;52.474;13.710;2022-08-19T06:15:14;21.30;99.90
32749;DHT22;19119;52.474;13.710;2022-08-19T06:17:40;21.30;99.90
32749;DHT22;19119;52.474;13.710;2022-08-19T06:20:09;21.30;99.90
32749;DHT22;19119;52.474;13.710;2022-08-19T06:22:39;21.30;99.90
32749;DHT22;19119;52.474;13.710;2022-08-19T06:25:05;21.40;99.90
32749;DHT22;19119;52.474;13.710;2022-08-19T06:27:31;21.50;99.90
32749;DHT22;19119;52.474;13.710;2022-08-19T06:29:58;21.40;99.90
32749;DHT22;19119;52.474;13.710;2022-08-19T06:32:23;21.40;99.90
32749;DHT22;19119;52.474;13.710;2022-08-19T06:34:48;21.70;99.90
32749;DHT22;19119;52.474;13.710;2022-08-19T06:37:14;21.70;99.90
32749;DHT22;19119;52.474;13.710;2022-08-19T06:39:42;21.80;99.90
32749;DHT22;19119;52.474;13.710;2022-08-19T06:42:08;21.60;99.90
32749;DHT22;19119;52.474;13.710;2022-08-19T06:44:37;21.60;99.90
32749;DHT22;19119;52.474;13.710;2022-08-19T06:47:06;21.70;99.90
32749;DHT22;19119;52.474;13.710;2022-08-19T06:49:31;21.70;99.90
32749;DHT22;19119;52.474;13.710;2022-08-19T06:51:58;21.70;99.90
32749;DHT22;19119;52.474;13.710;2022-08-19T06:54:24;21.60;99.90
32749;DHT22;19119;52.474;13.710;2022-08-19T06:56:51;21.70;99.90
32749;DHT22;19119;52.474;13.710;2022-08-19T06:59:20;21.80;99.90
32749;DHT22;19119;52.474;13.710;2022-08-19T07:01:51;21.80;99.90
32749;DHT22;19119;52.474;13.710;2022-08-19T07:04:20;21.80;99.90
32749;DHT22;19119;52.474;13.710;2022-08-19T07:06:47;21.80;99.90
32749;DHT22;19119;52.474;13.710;2022-08-19T07:09:14;21.80;99.90
32749;DHT22;19119;52.474;13.710;2022-08-19T07:11:45;21.80;99.90
32749;DHT22;19119;52.474;13.710;2022-08-19T07:14:12;21.80;99.90
32749;DHT22;19119;52.474;13.710;2022-08-19T07:16:37;21.70;99.90
32749;DHT22;19119;52.474;13.710;2022-08-19T07:19:03;21.70;99.90
32749;DHT22;19119;52.474;13.710;2022-08-19T07:21:28;21.70;99.90
32749;DHT22;19119;52.474;13.710;2022-08-19T07:23:55;21.90;99.90
32749;DHT22;19119;52.474;13.710;2022-08-19T07:26:25;21.80;99.90
32749;DHT22;19119;52.474;13.710;2022-08-19T07:28:51;21.90;99.90
32749;DHT22;19119;52.474;13.710;2022-08-19T07:31:19;21.90;99.90
32749;DHT22;19119;52.474;13.710;2022-08-19T07:33:47;21.90;99.90
32749;DHT22;19119;52.474;13.710;2022-08-19T07:36:16;22.00;99.90
32749;DHT22;19119;52.474;13.710;2022-08-19T07:38:43;22.10;99.90
32749;DHT22;19119;52.474;13.710;2022-08-19T07:41:14;22.00;99.90
32749;DHT22;19119;52.474;13.710;2022-08-19T07:43:40;22.00;99.90
32749;DHT22;19119;52.474;13.710;2022-08-19T07:46:06;22.00;99.90
32749;DHT22;19119;52.474;13.710;2022-08-19T07:48:32;22.10;99.90
32749;DHT22;19119;52.474;13.710;2022-08-19T07:51:03;22.20;99.90
32749;DHT22;19119;52.474;13.710;2022-08-19T07:53:30;22.10;99.90
32749;DHT22;19119;52.474;13.710;2022-08-19T07:55:56;22.30;99.90
32749;DHT22;19119;52.474;13.710;2022-08-19T07:58:28;22.10;99.90
32749;DHT22;19119;52.474;13.710;2022-08-19T08:00:54;22.20;99.90
32749;DHT22;19119;52.474;13.710;2022-08-19T08:03:21;22.30;99.90
32749;DHT22;19119;52.474;13.710;2022-08-19T08:06:08;22.20;99.90
32749;DHT22;19119;52.474;13.710;2022-08-19T08:08:52;22.10;99.90
32749;DHT22;19119;52.474;13.710;2022-08-19T08:11:42;22.00;99.90
32749;DHT22;19119;52.474;13.710;2022-08-19T08:14:08;22.10;99.90
32749;DHT22;19119;52.474;13.710;2022-08-19T08:16:36;22.30;99.90
32749;DHT22;19119;52.474;13.710;2022-08-19T08:19:04;22.30;99.90
32749;DHT22;19119;52.474;13.710;2022-08-19T08:21:31;22.50;99.90
32749;DHT22;19119;52.474;13.710;2022-08-19T08:23:57;22.50;99.90
32749;DHT22;19119;52.474;13.710;2022-08-19T08:26:23;22.40;99.90
32749;DHT22;19119;52.474;13.710;2022-08-19T08:28:50;22.50;99.90
32749;DHT22;19119;52.474;13.710;2022-08-19T08:31:16;22.70;99.90
32749;DHT22;19119;52.474;13.710;2022-08-19T08:33:43;22.70;99.90
32749;DHT22;19119;52.474;13.710;2022-08-19T08:36:10;22.80;99.90
32749;DHT22;19119;52.474;13.710;2022-08-19T08:38:40;22.90;99.90
32749;DHT22;19119;52.474;13.710;2022-08-19T08:41:37;23.10;99.90
32749;DHT22;19119;52.474;13.710;2022-08-19T08:44:06;23.20;99.90
32749;DHT22;19119;52.474;13.710;2022-08-19T08:46:44;22.90;99.90
32749;DHT22;19119;52.474;13.710;2022-08-19T08:49:29;23.10;99.90
32749;DHT22;19119;52.474;13.710;2022-08-19T08:52:04;23.00;99.90
32749;DHT22;19119;52.474;13.710;2022-08-19T08:54:42;22.90;99.90
32749;DHT22;19119;52.474;13.710;2022-08-19T08:57:19;22.90;99.90
32749;DHT22;19119;52.474;13.710;2022-08-19T08:59:48;23.10;99.90
32749;DHT22;19119;52.474;13.710;2022-08-19T09:02:17;23.00;99.90
32749;DHT22;19119;52.474;13.710;2022-08-19T09:04:43;23.10;99.90
32749;DHT22;19119;52.474;13.710;2022-08-19T09:07:50;23.30;99.90
32749;DHT22;19119;52.474;13.710;2022-08-19T09:10:54;23.50;99.90
32749;DHT22;19119;52.474;13.710;2022-08-19T09:16:06;23.80;99.90
32749;DHT22;19119;52.474;13.710;2022-08-19T09:18:47;23.80;99.90
32749;DHT22;19119;52.474;13.710;2022-08-19T09:21:15;23.60;99.90
32749;DHT22;19119;52.474;13.710;2022-08-19T09:23:40;23.80;99.90
32749;DHT22;19119;52.474;13.710;2022-08-19T09:26:13;24.00;99.90
32749;DHT22;19119;52.474;13.710;2022-08-19T09:28:43;23.80;99.90
32749;DHT22;19119;52.474;13.710;2022-08-19T09:31:10;23.80;99.90
32749;DHT22;19119;52.474;13.710;2022-08-19T09:33:36;23.90;99.90
32749;DHT22;19119;52.474;13.710;2022-08-19T09:36:11;23.70;99.90
32749;DHT22;19119;52.474;13.710;2022-08-19T09:38:37;23.50;99.90
32749;DHT22;19119;52.474;13.710;2022-08-19T09:41:07;23.50;99.90
32749;DHT22;19119;52.474;13.710;2022-08-19T09:43:33;23.30;99.90
32749;DHT22;19119;52.474;13.710;2022-08-19T09:46:06;23.50;99.90
32749;DHT22;19119;52.474;13.710;2022-08-19T09:48:33;23.30;99.90
32749;DHT22;19119;52.474;13.710;2022-08-19T09:51:08;23.40;99.90
32749;DHT22;19119;52.474;13.710;2022-08-19T09:53:34;23.20;99.90
32749;DHT22;19119;52.474;13.710;2022-08-19T09:56:01;23.20;99.90
32749;DHT22;19119;52.474;13.710;2022-08-19T09:58:27;23.20;99.90
32749;DHT22;19119;52.474;13.710;2022-08-19T10:00:55;23.20;99.90
32749;DHT22;19119;52.474;13.710;2022-08-19T10:03:21;23.30;99.90
32749;DHT22;19119;52.474;13.710;2022-08-19T10:05:47;23.20;99.90
32749;DHT22;19119;52.474;13.710;2022-08-19T10:08:22;23.40;99.90
32749;DHT22;19119;52.474;13.710;2022-08-19T10:10:49;23.60;99.90
32749;DHT22;19119;52.474;13.710;2022-08-19T10:13:17;23.70;99.90
32749;DHT22;19119;52.474;13.710;2022-08-19T10:15:44;23.60;99.90
32749;DHT22;19119;52.474;13.710;2022-08-19T10:18:09;23.50;99.90
32749;DHT22;19119;52.474;13.710;2022-08-19T10:20:35;23.50;99.90
32749;DHT22;19119;52.474;13.710;2022-08-19T10:23:01;23.50;99.90
32749;DHT22;19119;52.474;13.710;2022-08-19T10:25:28;23.60;99.90
32749;DHT22;19119;52.474;13.710;2022-08-19T10:27:53;23.80;99.90
32749;DHT22;19119;52.474;13.710;2022-08-19T10:30:19;23.80;99.90
32749;DHT22;19119;52.474;13.710;2022-08-19T10:32:45;24.00;99.90
32749;DHT22;19119;52.474;13.710;2022-08-19T10:35:12;24.00;99.90
32749;DHT22;19119;52.474;13.710;2022-08-19T10:37:38;24.20;99.90
32749;DHT22;19119;52.474;13.710;2022-08-19T10:40:06;24.40;99.90
32749;DHT22;19119;52.474;13.710;2022-08-19T10:42:33;24.30;99.90
32749;DHT22;19119;52.474;13.710;2022-08-19T10:44:58;24.60;99.90
32749;DHT22;19119;52.474;13.710;2022-08-19T10:47:24;24.40;99.90
32749;DHT22;19119;52.474;13.710;2022-08-19T10:49:49;24.10;99.90
32749;DHT22;19119;52.474;13.710;2022-08-19T10:52:33;24.00;99.90
32749;DHT22;19119;52.474;13.710;2022-08-19T10:55:00;24.20;99.90
32749;DHT22;19119;52.474;13.710;2022-08-19T10:57:45;24.20;99.90
32749;DHT22;19119;52.474;13.710;2022-08-19T11:00:11;24.20;99.90
32749;DHT22;19119;52.474;13.710;2022-08-19T11:02:37;24.10;99.90
32749;DHT22;19119;52.474;13.710;2022-08-19T11:05:03;24.30;99.90
32749;DHT22;19119;52.474;13.710;2022-08-19T11:07:29;24.50;99.90
32749;DHT22;19119;52.474;13.710;2022-08-19T11:09:54;24.60;99.90
32749;DHT22;19119;52.474;13.710;2022-08-19T11:12:20;24.60;99.90
32749;DHT22;19119;52.474;13.710;2022-08-19T11:14:46;24.60;99.90
32749;DHT22;19119;52.474;13.710;2022-08-19T11:17:15;24.60;99.90
32749;DHT22;19119;52.474;13.710;2022-08-19T11:19:40;24.70;99.90
32749;DHT22;19119;52.474;13.710;2022-08-19T11:22:08;24.80;99.90
32749;DHT22;19119;52.474;13.710;2022-08-19T11:24:35;25.00;99.90
32749;DHT22;19119;52.474;13.710;2022-08-19T11:27:06;25.10;99.90
32749;DHT22;19119;52.474;13.710;2022-08-19T11:29:33;25.10;99.90
32749;DHT22;19119;52.474;13.710;2022-08-19T11:32:00;24.90;99.90
32749;DHT22;19119;52.474;13.710;2022-08-19T11:34:28;24.30;99.90
32749;DHT22;19119;52.474;13.710;2022-08-19T11:36:55;24.40;99.90
32749;DHT22;19119;52.474;13.710;2022-08-19T11:39:26;24.50;99.90
32749;DHT22;19119;52.474;13.710;2022-08-19T11:41:52;24.50;99.90
32749;DHT22;19119;52.474;13.710;2022-08-19T11:44:18;24.60;99.90
32749;DHT22;19119;52.474;13.710;2022-08-19T11:46:44;24.70;99.90
32749;DHT22;19119;52.474;13.710;2022-08-19T11:49:16;24.80;99.90
32749;DHT22;19119;52.474;13.710;2022-08-19T11:51:42;24.90;99.90
32749;DHT22;19119;52.474;13.710;2022-08-19T11:54:09;25.00;99.90
32749;DHT22;19119;52.474;13.710;2022-08-19T11:56:36;25.20;99.90
32749;DHT22;19119;52.474;13.710;2022-08-19T11:59:02;25.30;99.90
32749;DHT22;19119;52.474;13.710;2022-08-19T12:01:28;25.40;99.90
32749;DHT22;19119;52.474;13.710;2022-08-19T12:03:55;25.40;99.90
32749;DHT22;19119;52.474;13.710;2022-08-19T12:06:27;25.60;99.90
32749;DHT22;19119;52.474;13.710;2022-08-19T12:08:58;25.70;99.90
32749;DHT22;19119;52.474;13.710;2022-08-19T12:11:25;25.70;99.90
32749;DHT22;19119;52.474;13.710;2022-08-19T12:13:51;25.50;99.90
32749;DHT22;19119;52.474;13.710;2022-08-19T12:16:19;25.40;99.90
32749;DHT22;19119;52.474;13.710;2022-08-19T12:18:46;25.30;99.90
32749;DHT22;19119;52.474;13.710;2022-08-19T12:21:16;25.20;99.90
32749;DHT22;19119;52.474;13.710;2022-08-19T12:23:43;25.20;99.90
32749;DHT22;19119;52.474;13.710;2022-08-19T12:26:11;25.10;99.90
32749;DHT22;19119;52.474;13.710;2022-08-19T12:28:37;25.00;99.90
32749;DHT22;19119;52.474;13.710;2022-08-19T12:31:03;25.00;99.90
32749;DHT22;19119;52.474;13.710;2022-08-19T12:33:29;25.00;99.90
32749;DHT22;19119;52.474;13.710;2022-08-19T12:35:55;25.10;99.90
32749;DHT22;19119;52.474;13.710;2022-08-19T12:38:24;25.20;99.90
32749;DHT22;19119;52.474;13.710;2022-08-19T12:40:50;25.40;99.90
32749;DHT22;19119;52.474;13.710;2022-08-19T12:43:17;25.60;99.90
32749;DHT22;19119;52.474;13.710;2022-08-19T12:45:45;25.90;99.90
32749;DHT22;19119;52.474;13.710;2022-08-19T12:48:10;25.80;99.90
32749;DHT22;19119;52.474;13.710;2022-08-19T12:50:39;25.60;99.90
32749;DHT22;19119;52.474;13.710;2022-08-19T12:53:05;25.70;99.90
32749;DHT22;19119;52.474;13.710;2022-08-19T12:55:30;25.70;99.90
32749;DHT22;19119;52.474;13.710;2022-08-19T12:57:56;26.00;99.90
32749;DHT22;19119;52.474;13.710;2022-08-19T13:00:22;26.10;99.90
32749;DHT22;19119;52.474;13.710;2022-08-19T13:02:50;26.00;99.90
32749;DHT22;19119;52.474;13.710;2022-08-19T13:05:23;26.00;99.90
32749;DHT22;19119;52.474;13.710;2022-08-19T13:07:51;26.10;99.90
32749;DHT22;19119;52.474;13.710;2022-08-19T13:10:19;26.00;99.90
32749;DHT22;19119;52.474;13.710;2022-08-19T13:12:47;25.90;99.90
32749;DHT22;19119;52.474;13.710;2022-08-19T13:15:14;25.80;99.90
32749;DHT22;19119;52.474;13.710;2022-08-19T13:17:40;25.80;99.90
32749;DHT22;19119;52.474;13.710;2022-08-19T13:20:07;25.60;99.90
32749;DHT22;19119;52.474;13.710;2022-08-19T13:22:33;25.60;99.90
32749;DHT22;19119;52.474;13.710;2022-08-19T13:25:00;25.70;99.90
32749;DHT22;19119;52.474;13.710;2022-08-19T13:27:26;25.70;99.90
32749;DHT22;19119;52.474;13.710;2022-08-19T13:29:51;25.90;99.90
32749;DHT22;19119;52.474;13.710;2022-08-19T13:32:35;26.00;99.90
32749;DHT22;19119;52.474;13.710;2022-08-19T13:35:19;26.30;99.90
32749;DHT22;19119;52.474;13.710;2022-08-19T13:37:45;26.50;99.90
32749;DHT22;19119;52.474;13.710;2022-08-19T13:40:17;26.80;99.90
32749;DHT22;19119;52.474;13.710;2022-08-19T13:42:45;27.00;99.90
32749;DHT22;19119;52.474;13.710;2022-08-19T13:45:13;27.10;99.90
32749;DHT22;19119;52.474;13.710;2022-08-19T13:47:40;27.20;99.90
32749;DHT22;19119;52.474;13.710;2022-08-19T13:50:11;27.10;99.90
32749;DHT22;19119;52.474;13.710;2022-08-19T13:52:38;27.40;99.90
32749;DHT22;19119;52.474;13.710;2022-08-19T13:55:04;27.50;99.90
32749;DHT22;19119;52.474;13.710;2022-08-19T13:57:30;27.40;99.90
32749;DHT22;19119;52.474;13.710;2022-08-19T13:59:57;27.30;99.90
32749;DHT22;19119;52.474;13.710;2022-08-19T14:02:23;27.10;99.90
32749;DHT22;19119;52.474;13.710;2022-08-19T14:04:48;27.00;99.90
32749;DHT22;19119;52.474;13.710;2022-08-19T14:07:14;27.00;99.90
32749;DHT22;19119;52.474;13.710;2022-08-19T14:09:39;27.00;99.90
32749;DHT22;19119;52.474;13.710;2022-08-19T14:12:05;26.90;99.90
32749;DHT22;19119;52.474;13.710;2022-08-19T14:14:30;27.20;99.90
32749;DHT22;19119;52.474;13.710;2022-08-19T14:16:56;27.40;99.90
32749;DHT22;19119;52.474;13.710;2022-08-19T14:19:22;27.40;99.90
32749;DHT22;19119;52.474;13.710;2022-08-19T14:21:47;27.30;99.90
32749;DHT22;19119;52.474;13.710;2022-08-19T14:24:13;27.00;99.90
32749;DHT22;19119;52.474;13.710;2022-08-19T14:26:38;26.90;99.90
32749;DHT22;19119;52.474;13.710;2022-08-19T14:29:04;26.80;99.90
32749;DHT22;19119;52.474;13.710;2022-08-19T14:31:29;26.70;99.90
32749;DHT22;19119;52.474;13.710;2022-08-19T14:33:55;26.70;99.90
32749;DHT22;19119;52.474;13.710;2022-08-19T14:36:20;26.50;99.90
32749;DHT22;19119;52.474;13.710;2022-08-19T14:38:47;26.50;99.90
32749;DHT22;19119;52.474;13.710;2022-08-19T14:41:21;26.40;99.90
32749;DHT22;19119;52.474;13.710;2022-08-19T14:43:51;26.40;99.90
32749;DHT22;19119;52.474;13.710;2022-08-19T14:46:19;26.30;99.90
32749;DHT22;19119;52.474;13.710;2022-08-19T14:48:45;26.20;99.90
32749;DHT22;19119;52.474;13.710;2022-08-19T14:51:11;26.00;99.90
32749;DHT22;19119;52.474;13.710;2022-08-19T14:53:37;26.00;99.90
32749;DHT22;19119;52.474;13.710;2022-08-19T14:56:08;26.10;99.90
32749;DHT22;19119;52.474;13.710;2022-08-19T14:58:34;26.30;99.90
32749;DHT22;19119;52.474;13.710;2022-08-19T15:01:00;26.40;99.90
32749;DHT22;19119;52.474;13.710;2022-08-19T15:03:26;26.40;99.90
32749;DHT22;19119;52.474;13.710;2022-08-19T15:05:52;26.20;99.90
32749;DHT22;19119;52.474;13.710;2022-08-19T15:08:18;26.10;99.90
32749;DHT22;19119;52.474;13.710;2022-08-19T15:10:44;26.10;99.90
32749;DHT22;19119;52.474;13.710;2022-08-19T15:13:24;26.10;99.90
32749;DHT22;19119;52.474;13.710;2022-08-19T15:15:50;26.20;99.90
32749;DHT22;19119;52.474;13.710;2022-08-19T15:18:17;26.10;99.90
32749;DHT22;19119;52.474;13.710;2022-08-19T15:20:43;25.90;99.90
32749;DHT22;19119;52.474;13.710;2022-08-19T15:23:09;25.80;99.90
32749;DHT22;19119;52.474;13.710;2022-08-19T15:25:36;25.80;99.90